Biel, Switzerland
Current Conditions -  °F | °C
As of 11:50 PM on Wednesday 22 Oct 2014 (Local Time) from LSZG Reporting Station
Drizzle Drizzle  
Wind Chill: 36°   Ceiling: 2900
Heat Index: 43°   Visibility: 6mi
Dew Point: 39°   Wind: 13mph
Humidity: 87%   Direction: 240°WSW
Pressure: 30.3"   Gusts: NA
Location:  47.15°N, 7.24°E
Report Text: LSZG 222150Z AUTO 24011KT 9999 DZ SCT017 BKN029 06/04 Q1026 RESHRA
Loading
Personal Weather Stations






























Interactive Weather Map
Tropical Storm Tracking
New forecast layout! Learn more

10-Day Weather Forecast

Advertisements
Track Severe Weather on mobile